createdAt,value
2017-09-25T02:15:33.494Z,0
2017-09-25T04:43:16.639Z,2
2017-09-25T04:50:53.065Z,5
2017-09-25T04:52:54.949Z,8
2017-09-25T04:54:26.721Z,10
2017-09-25T04:55:27.605Z,13
2017-09-25T04:55:57.591Z,15
2017-09-25T04:56:28.503Z,17
2017-09-25T04:57:29.430Z,20
2017-09-25T04:57:59.422Z,22
2017-09-25T04:58:30.336Z,25
2017-09-25T04:59:00.624Z,30
2017-09-25T04:59:31.269Z,35
2017-09-25T05:00:01.238Z,40
2017-09-25T05:00:32.152Z,47
2017-09-25T05:01:02.139Z,52
2017-09-25T05:01:33.063Z,60
2017-09-25T05:02:03.110Z,65
2017-09-25T05:02:34.006Z,73
2017-09-25T05:03:04.033Z,80
2017-09-25T05:03:34.845Z,88
2017-09-25T05:04:04.888Z,95
2017-09-25T05:04:35.814Z,100
2017-09-25T05:05:05.826Z,103
2017-09-25T05:05:36.703Z,107
2017-09-25T05:06:06.759Z,110
2017-09-25T05:06:37.605Z,112
2017-09-25T05:07:07.631Z,115
2017-09-25T05:07:38.567Z,118
2017-09-25T05:08:08.584Z,120
2017-09-25T05:08:39.419Z,125
2017-09-25T05:09:09.457Z,128
2017-09-25T05:09:40.328Z,135
2017-09-25T05:10:10.366Z,140
2017-09-25T05:10:41.250Z,145
2017-09-25T05:11:11.343Z,152
2017-09-25T05:11:42.166Z,160
2017-09-25T05:12:12.247Z,163
2017-09-25T05:12:43.092Z,170
2017-09-25T05:13:13.150Z,175
2017-09-25T05:13:43.959Z,178
2017-09-25T05:14:13.997Z,182
2017-09-25T05:14:44.995Z,185
2017-09-25T05:15:15.000Z,187
2017-09-25T05:15:45.813Z,193
2017-09-25T05:16:15.937Z,195
2017-09-25T05:16:46.743Z,200
2017-09-25T05:17:16.792Z,205
2017-09-25T05:17:47.704Z,210
2017-09-25T05:18:17.732Z,212
2017-09-25T05:18:48.651Z,215
2017-09-25T05:19:18.646Z,218
2017-09-25T05:19:49.494Z,220
2017-09-25T05:20:19.583Z,223
2017-09-25T05:21:51.350Z,225
2017-09-25T05:22:21.397Z,238
2017-09-25T05:22:52.243Z,253
2017-09-25T05:23:22.284Z,272
2017-09-25T05:23:53.103Z,300
2017-09-25T05:24:23.138Z,337
2017-09-25T05:24:54.063Z,383
2017-09-25T05:25:24.072Z,422
2017-09-25T05:25:54.980Z,445
2017-09-25T05:26:25.008Z,458
2017-09-25T05:26:55.832Z,465
2017-09-25T05:27:25.858Z,473
2017-09-25T05:27:56.809Z,475
2017-09-25T05:29:27.714Z,480
2017-09-25T05:29:58.582Z,485
2017-09-25T05:30:28.601Z,487
2017-09-25T05:30:59.531Z,480
2017-09-25T05:31:29.551Z,470
2017-09-25T05:32:00.625Z,467
2017-09-25T05:32:30.484Z,455
2017-09-25T05:33:01.330Z,442
2017-09-25T05:33:31.385Z,430
2017-09-25T05:34:02.277Z,418
2017-09-25T05:34:32.267Z,398
2017-09-25T05:35:03.165Z,373
2017-09-25T05:35:33.176Z,347
2017-09-25T05:36:04.126Z,328
2017-09-25T05:36:34.070Z,310
2017-09-25T05:37:04.988Z,295
2017-09-25T05:37:34.974Z,280
2017-09-25T05:38:05.863Z,268
2017-09-25T05:38:35.914Z,262
2017-09-25T05:39:36.778Z,270
2017-09-25T05:40:07.672Z,275
2017-09-25T05:40:37.760Z,283
2017-09-25T05:41:08.643Z,295
2017-09-25T05:41:38.672Z,313
2017-09-25T05:42:09.528Z,322
2017-09-25T05:42:39.527Z,337
2017-09-25T05:43:10.446Z,365
2017-09-25T05:43:40.411Z,392
2017-09-25T05:44:11.281Z,380
2017-09-25T05:44:41.373Z,365
2017-09-25T05:45:12.273Z,360
2017-09-25T05:45:42.306Z,358
2017-09-25T05:46:13.210Z,362
2017-09-25T05:46:43.204Z,380
2017-09-25T05:47:14.023Z,400
2017-09-25T05:47:44.067Z,433
2017-09-25T05:48:15.040Z,500
2017-09-25T05:48:45.015Z,570
2017-09-25T05:49:15.859Z,632
2017-09-25T05:49:45.963Z,675
2017-09-25T05:50:16.793Z,720
2017-09-25T05:50:46.840Z,770
2017-09-25T05:51:17.850Z,823
2017-09-25T05:51:47.772Z,895
2017-09-25T05:52:18.597Z,960
2017-09-25T05:52:48.650Z,998
2017-09-25T05:53:19.569Z,1045
2017-09-25T05:53:49.539Z,1102
2017-09-25T05:54:20.466Z,1150
2017-09-25T05:54:50.537Z,1215
2017-09-25T05:55:21.385Z,1342
2017-09-25T05:55:51.428Z,1440
2017-09-25T05:56:22.353Z,1513
2017-09-25T05:56:52.333Z,1570
2017-09-25T05:57:23.165Z,1583
2017-09-25T05:57:53.183Z,1520
2017-09-25T05:58:24.113Z,1463
2017-09-25T05:58:54.129Z,1475
2017-09-25T05:59:25.030Z,1495
2017-09-25T05:59:55.060Z,1535
2017-09-25T06:00:25.905Z,1588
2017-09-25T06:00:55.969Z,1615
2017-09-25T06:01:26.944Z,1630
2017-09-25T06:02:27.837Z,1615
2017-09-25T06:02:57.809Z,1620
2017-09-25T06:03:28.741Z,1695
2017-09-25T06:03:58.773Z,1765
2017-09-25T06:04:29.676Z,1832
2017-09-25T06:04:59.674Z,1858
2017-09-25T06:06:00.741Z,1845
2017-09-25T06:06:31.529Z,1850
2017-09-25T06:07:01.519Z,1873
2017-09-25T06:07:32.348Z,1897
2017-09-25T06:08:02.426Z,1915
2017-09-25T06:08:33.303Z,1920
2017-09-25T06:09:03.326Z,1915
2017-09-25T06:09:34.224Z,1897
2017-09-25T06:10:04.270Z,1865
2017-09-25T06:10:35.093Z,1828
2017-09-25T06:11:05.142Z,1795
2017-09-25T06:11:36.140Z,1760
2017-09-25T06:12:06.112Z,1720
2017-09-25T06:12:36.965Z,1670
2017-09-25T06:13:07.037Z,1618
2017-09-25T06:13:37.866Z,1573
2017-09-25T06:14:07.882Z,1532
2017-09-25T06:14:38.813Z,1490
2017-09-25T06:15:08.788Z,1440
2017-09-25T06:15:39.737Z,1385
2017-09-25T06:16:09.693Z,1320
2017-09-25T06:16:40.684Z,1265
2017-09-25T06:17:10.632Z,1215
2017-09-25T06:17:41.555Z,1175
2017-09-25T06:18:11.535Z,1153
2017-09-25T06:18:42.483Z,1142
2017-09-25T06:19:12.518Z,1155
2017-09-25T06:19:43.393Z,1190
2017-09-25T06:20:13.409Z,1243
2017-09-25T06:20:44.264Z,1303
2017-09-25T06:21:14.338Z,1375
2017-09-25T06:21:45.274Z,1468
2017-09-25T06:22:15.305Z,1573
2017-09-25T06:22:46.156Z,1667
2017-09-25T06:23:16.206Z,1735
2017-09-25T06:23:47.065Z,1738
2017-09-25T06:24:17.051Z,1687
2017-09-25T06:24:47.958Z,1600
2017-09-25T06:25:18.006Z,1500
2017-09-25T06:25:48.924Z,1385
2017-09-25T06:26:18.924Z,1277
2017-09-25T06:26:49.883Z,1180
2017-09-25T06:27:19.784Z,1110
2017-09-25T06:27:50.739Z,1060
2017-09-25T06:28:20.746Z,1035
2017-09-25T06:28:51.646Z,1030
2017-09-25T06:29:21.677Z,1042
2017-09-25T06:29:52.570Z,1060
2017-09-25T06:30:22.594Z,1078
2017-09-25T06:30:53.475Z,1100
2017-09-25T06:31:23.492Z,1142
2017-09-25T06:31:54.497Z,1207
2017-09-25T06:32:24.425Z,1268
2017-09-25T06:32:55.309Z,1312
2017-09-25T06:33:25.324Z,1342
2017-09-25T06:33:56.153Z,1370
2017-09-25T06:34:26.181Z,1417
2017-09-25T06:34:57.074Z,1477
2017-09-25T06:35:27.143Z,1510
2017-09-25T06:35:58.027Z,1513
2017-09-25T06:36:28.057Z,1505
2017-09-25T06:36:58.898Z,1508
2017-09-25T06:37:28.920Z,1538
2017-09-25T06:37:59.878Z,1618
2017-09-25T06:38:29.855Z,1760
2017-09-25T06:39:00.712Z,2003
2017-09-25T06:39:30.766Z,2368
2017-09-25T06:40:01.636Z,2767
2017-09-25T06:40:31.646Z,3002
2017-09-25T06:41:02.591Z,3088
2017-09-25T06:41:32.596Z,3137
2017-09-25T06:42:03.494Z,3212
2017-09-25T06:42:33.493Z,3253
2017-09-25T06:43:04.378Z,3287
2017-09-25T06:43:34.430Z,3302
2017-09-25T06:44:05.268Z,3238
2017-09-25T06:44:35.308Z,3150
2017-09-25T06:45:06.194Z,3077
2017-09-25T06:45:36.248Z,3008
2017-09-25T06:46:07.117Z,2950
2017-09-25T06:46:37.160Z,2930
2017-09-25T06:47:08.040Z,2957
2017-09-25T06:47:38.040Z,3077
2017-09-25T06:48:08.933Z,3302
2017-09-25T06:48:38.959Z,3602
2017-09-25T06:49:09.840Z,3898
2017-09-25T06:49:39.833Z,4118
2017-09-25T06:50:10.731Z,4260
2017-09-25T06:50:40.740Z,4337
2017-09-25T06:51:11.664Z,4378
2017-09-25T06:51:41.647Z,4400
2017-09-25T06:52:12.622Z,4430
2017-09-25T06:52:42.634Z,4472
2017-09-25T06:53:13.454Z,4530
2017-09-25T06:53:43.475Z,4595
2017-09-25T06:54:14.345Z,4652
2017-09-25T06:54:44.410Z,4695
2017-09-25T06:55:15.330Z,4712
2017-09-25T06:55:45.300Z,4697
2017-09-25T06:56:16.211Z,4640
2017-09-25T06:56:46.263Z,4552
2017-09-25T06:57:17.160Z,4480
2017-09-25T06:57:47.119Z,4453
2017-09-25T06:58:18.031Z,4463
2017-09-25T06:58:48.087Z,4498
2017-09-25T06:59:18.913Z,4543
2017-09-25T06:59:48.996Z,4583
2017-09-25T07:00:19.836Z,4635
2017-09-25T07:00:49.857Z,4712
2017-09-25T07:01:20.722Z,4823
2017-09-25T07:01:50.820Z,4945
2017-09-25T07:02:21.694Z,5072
2017-09-25T07:02:51.709Z,5190
2017-09-25T07:03:22.592Z,5293
2017-09-25T07:03:52.646Z,5387
2017-09-25T07:04:23.561Z,5488
2017-09-25T07:04:53.553Z,5585
2017-09-25T07:05:24.428Z,5692
2017-09-25T07:05:54.453Z,5818
2017-09-25T07:06:25.331Z,5972
2017-09-25T07:06:55.369Z,6137
2017-09-25T07:07:26.247Z,6330
2017-09-25T07:07:56.236Z,6512
2017-09-25T07:08:27.173Z,6685
2017-09-25T07:08:57.225Z,6840
2017-09-25T07:09:28.032Z,6985
2017-09-25T07:09:58.127Z,7105
2017-09-25T07:10:28.949Z,7180
2017-09-25T07:10:59.505Z,7163
2017-09-25T07:11:29.932Z,7050
2017-09-25T07:11:59.932Z,6880
2017-09-25T07:12:31.052Z,6670
2017-09-25T07:13:00.836Z,6433
2017-09-25T07:13:31.801Z,6167
2017-09-25T07:14:01.835Z,5953
2017-09-25T07:14:32.659Z,5825
2017-09-25T07:15:02.715Z,5780
2017-09-25T07:15:33.611Z,5783
2017-09-25T07:16:03.584Z,5795
2017-09-25T07:16:34.471Z,5807
2017-09-25T07:17:04.517Z,5830
2017-09-25T07:17:35.559Z,5857
2017-09-25T07:18:05.494Z,5897
2017-09-25T07:18:36.335Z,5935
2017-09-25T07:19:06.355Z,5950
2017-09-25T07:19:37.251Z,5927
2017-09-25T07:20:07.315Z,5855
2017-09-25T07:20:38.167Z,5738
2017-09-25T07:21:08.146Z,5590
2017-09-25T07:21:39.086Z,5392
2017-09-25T07:22:09.089Z,5150
2017-09-25T07:22:40.051Z,4895
2017-09-25T07:23:10.041Z,4665
2017-09-25T07:23:40.876Z,4493
2017-09-25T07:24:10.955Z,4397
2017-09-25T07:24:41.767Z,4348
2017-09-25T07:25:11.829Z,4325
2017-09-25T07:25:42.666Z,4298
2017-09-25T07:26:12.853Z,4258
2017-09-25T07:26:43.594Z,4230
2017-09-25T07:29:46.375Z,4020
2017-09-25T07:30:16.444Z,4082
2017-09-25T07:30:47.324Z,4210
2017-09-25T07:31:17.340Z,4373
2017-09-25T07:31:48.178Z,4538
2017-09-25T07:32:18.210Z,4630
2017-09-25T07:32:49.143Z,4658
2017-09-25T07:33:19.240Z,4663
2017-09-25T07:33:50.053Z,4648
2017-09-25T07:34:20.104Z,4652
2017-09-25T07:34:50.979Z,4667
2017-09-25T07:35:20.915Z,4682
2017-09-25T07:35:51.792Z,4687
2017-09-25T07:38:54.620Z,4363
2017-09-25T07:39:24.606Z,4232
2017-09-25T07:41:57.341Z,4235
2017-09-25T07:42:27.388Z,4382
2017-09-25T07:42:58.379Z,4673
2017-09-25T07:43:28.317Z,5105
2017-09-25T07:43:59.162Z,5600
2017-09-25T07:44:29.204Z,5993
2017-09-25T07:45:00.038Z,6240
2017-09-25T07:45:30.083Z,6375
2017-09-25T07:46:00.949Z,6460
2017-09-25T07:46:31.028Z,6463
2017-09-25T07:47:01.898Z,6295
2017-09-25T07:47:31.909Z,6050
2017-09-25T07:48:02.833Z,5747
2017-09-25T07:48:32.828Z,5395
2017-09-25T07:49:03.695Z,4988
2017-09-25T07:49:33.680Z,4618
2017-09-25T07:50:04.629Z,4350
2017-09-25T07:50:34.617Z,4225
2017-09-25T07:51:05.536Z,4192
2017-09-25T07:51:35.537Z,4210
2017-09-25T07:52:06.381Z,4298
2017-09-25T07:52:36.481Z,4450
2017-09-25T07:53:07.596Z,4635
2017-09-25T07:53:37.369Z,4772
2017-09-25T07:54:08.262Z,4852
2017-09-25T07:54:38.288Z,4888
2017-09-25T07:55:09.179Z,4875
2017-09-25T07:55:39.180Z,4838
2017-09-25T07:56:10.091Z,4790
2017-09-25T07:56:40.049Z,4717
2017-09-25T07:57:10.954Z,4592
2017-09-25T07:57:40.989Z,4440
2017-09-25T07:58:11.972Z,4265
2017-09-25T07:58:41.945Z,4095
2017-09-25T07:59:12.837Z,3995
2017-09-25T07:59:42.861Z,4010
2017-09-25T08:00:13.694Z,4168
2017-09-25T08:00:43.712Z,4400
2017-09-25T08:01:14.612Z,4660
2017-09-25T08:01:44.683Z,4913
2017-09-25T08:02:15.554Z,5125
2017-09-25T08:02:45.564Z,5295
2017-09-25T08:03:16.511Z,5443
2017-09-25T08:03:46.446Z,5605
2017-09-25T08:04:17.375Z,5747
2017-09-25T08:04:47.404Z,5848
2017-09-25T08:05:18.293Z,5932
2017-09-25T08:05:48.324Z,5972
2017-09-25T08:06:19.222Z,5930
2017-09-25T08:06:49.256Z,5848
2017-09-25T08:07:20.086Z,5743
2017-09-25T08:07:50.101Z,5638
2017-09-25T08:08:21.046Z,5543
2017-09-25T08:08:51.065Z,5460
2017-09-25T08:09:21.930Z,5383
2017-09-25T08:09:51.985Z,5308
2017-09-25T08:10:22.828Z,5227
2017-09-25T08:10:52.822Z,5125
2017-09-25T08:11:23.774Z,4993
2017-09-25T08:11:53.803Z,4850
2017-09-25T08:12:24.663Z,4710
2017-09-25T08:12:54.680Z,4562
2017-09-25T08:13:25.646Z,4393
2017-09-25T08:13:55.620Z,4210
2017-09-25T08:14:26.557Z,3998
2017-09-25T08:14:56.581Z,3775
2017-09-25T08:15:27.432Z,3542
2017-09-25T08:15:57.527Z,3330
2017-09-25T08:16:28.414Z,3122
2017-09-25T08:16:58.373Z,2940
2017-09-25T08:17:29.239Z,2792
2017-09-25T08:17:59.282Z,2698
2017-09-25T08:18:30.279Z,2648
2017-09-25T08:19:00.203Z,2660
2017-09-25T08:19:31.133Z,2725
2017-09-25T08:20:01.110Z,2818
2017-09-25T08:20:31.998Z,2887
2017-09-25T08:21:02.049Z,2918
2017-09-25T08:21:32.911Z,2920
2017-09-25T08:22:02.951Z,2908
2017-09-25T08:22:33.935Z,2900
2017-09-25T08:23:03.899Z,2915
2017-09-25T08:23:34.790Z,2942
2017-09-25T08:24:04.812Z,2970
2017-09-25T08:24:35.723Z,2998
2017-09-25T08:25:05.728Z,3040
2017-09-25T08:25:36.584Z,3145
2017-09-25T08:26:06.636Z,3298
2017-09-25T08:26:37.559Z,3472
2017-09-25T08:27:07.520Z,3605
2017-09-25T08:27:38.400Z,3692
2017-09-25T08:28:08.463Z,3735
2017-09-25T08:28:39.477Z,3763
2017-09-25T08:29:09.393Z,3790
2017-09-25T08:29:40.276Z,3810
2017-09-25T08:30:41.165Z,3795
2017-09-25T08:31:11.208Z,3793
2017-09-25T08:31:42.140Z,3802
2017-09-25T08:32:12.150Z,3823
2017-09-25T08:32:43.030Z,3853
2017-09-25T08:33:13.075Z,3898
2017-09-25T08:33:43.966Z,3970
2017-09-25T08:34:13.950Z,4050
2017-09-25T08:34:44.904Z,4112
2017-09-25T08:35:14.925Z,4138
2017-09-25T08:35:45.769Z,4112
2017-09-25T08:36:15.821Z,4043
2017-09-25T08:36:46.675Z,3938
2017-09-25T08:37:16.704Z,3827
2017-09-25T08:37:47.624Z,3715
2017-09-25T08:38:17.685Z,3613
2017-09-25T08:38:48.609Z,3450
2017-09-25T08:39:18.598Z,3255
2017-09-25T08:39:49.482Z,3105
2017-09-25T08:40:50.407Z,3238
2017-09-25T08:41:20.418Z,3422
2017-09-25T08:41:51.320Z,3572
2017-09-25T08:42:21.323Z,3632
2017-09-25T08:42:52.246Z,3637
2017-09-25T08:43:22.274Z,3620
2017-09-25T08:43:53.171Z,3555
2017-09-25T08:44:23.175Z,3422
2017-09-25T08:44:54.022Z,3220
2017-09-25T08:45:24.099Z,3085
2017-09-25T08:45:55.008Z,3088
2017-09-25T08:46:25.020Z,3200
2017-09-25T08:46:55.869Z,3328
2017-09-25T08:47:25.928Z,3388
2017-09-25T08:47:56.855Z,3412
2017-09-25T08:48:26.883Z,3433
2017-09-25T08:49:27.858Z,3418
2017-09-25T08:49:58.648Z,3332
2017-09-25T08:50:28.674Z,3140
2017-09-25T08:50:59.560Z,2923
2017-09-25T08:51:29.636Z,2740
2017-09-25T08:52:00.735Z,2565
2017-09-25T08:52:30.531Z,2318
2017-09-25T08:53:01.361Z,2000
2017-09-25T08:53:31.407Z,1750
2017-09-25T08:54:02.343Z,1657
2017-09-25T08:54:32.484Z,1705
2017-09-25T08:55:03.266Z,1780
2017-09-25T08:55:33.289Z,1892
2017-09-25T08:56:04.210Z,2065
2017-09-25T08:56:34.246Z,2200
2017-09-25T08:57:05.053Z,2242
2017-09-25T08:57:35.090Z,2237
2017-09-25T08:58:06.034Z,2177
2017-09-25T08:58:36.046Z,2098
2017-09-25T08:59:06.903Z,2057
2017-09-25T08:59:37.024Z,2045
2017-09-25T09:00:07.811Z,2032
2017-09-25T09:00:37.853Z,1965
2017-09-25T09:01:08.733Z,1815
2017-09-25T09:01:38.789Z,1660
2017-09-25T09:02:09.710Z,1560
2017-09-25T09:02:39.733Z,1568
2017-09-25T09:03:10.549Z,1600
2017-09-25T09:03:40.591Z,1635
2017-09-25T09:04:11.543Z,1648
2017-09-25T09:04:41.572Z,1645
2017-09-25T09:05:12.401Z,1642
2017-09-25T09:05:42.480Z,1655
2017-09-25T09:06:13.389Z,1695
2017-09-25T09:06:43.404Z,1720
2017-09-25T09:07:14.261Z,1705
2017-09-25T09:07:44.240Z,1610
2017-09-25T09:08:15.155Z,1475
2017-09-25T09:08:45.204Z,1340
2017-09-25T09:09:16.083Z,1298
2017-09-25T09:09:46.175Z,1335
2017-09-25T09:10:16.946Z,1405
2017-09-25T09:10:47.000Z,1440
2017-09-25T09:11:17.890Z,1470
2017-09-25T09:11:47.913Z,1513
2017-09-25T09:12:18.793Z,1633
2017-09-25T09:12:48.900Z,1765
2017-09-25T09:13:19.706Z,1895
2017-09-25T09:13:49.751Z,2042
2017-09-25T09:14:20.608Z,2190
2017-09-25T09:14:50.803Z,2330
2017-09-25T09:15:21.533Z,2462
2017-09-25T09:15:51.609Z,2735
2017-09-25T09:16:22.474Z,3090
2017-09-25T09:16:52.516Z,3280
2017-09-25T09:17:23.408Z,3338
2017-09-25T09:17:53.466Z,3320
2017-09-25T09:18:24.326Z,3272
2017-09-25T09:18:54.371Z,3245
2017-09-25T09:19:25.277Z,3300
2017-09-25T09:19:55.318Z,3425
2017-09-25T09:20:26.117Z,3592
2017-09-25T09:20:56.161Z,3703
2017-09-25T09:21:27.070Z,3780
2017-09-25T09:21:57.138Z,3833
2017-09-25T09:22:27.994Z,3860
2017-09-25T09:22:58.039Z,3990
2017-09-25T09:23:28.874Z,4195
2017-09-25T09:23:58.911Z,4240
2017-09-25T09:24:29.847Z,4423
2017-09-25T09:24:59.895Z,4540
2017-09-25T09:25:30.759Z,4650
2017-09-25T09:26:00.730Z,4755
2017-09-25T09:26:31.622Z,4815
2017-09-25T09:27:01.673Z,4835
2017-09-25T09:27:32.521Z,4868
2017-09-25T09:28:02.585Z,4950
2017-09-25T09:28:33.486Z,4952
2017-09-25T09:29:03.499Z,4868
2017-09-25T09:29:34.403Z,4768
2017-09-25T09:30:04.462Z,4685
2017-09-25T09:30:35.315Z,4650
2017-09-25T09:31:05.297Z,4577
2017-09-25T09:31:36.214Z,4380
2017-09-25T09:32:06.284Z,4312
2017-09-25T09:32:37.146Z,4355
2017-09-25T09:33:07.193Z,4380
2017-09-25T09:33:38.030Z,4597
2017-09-25T09:34:08.055Z,4922
2017-09-25T09:34:38.992Z,5355
2017-09-25T09:35:09.064Z,5902
2017-09-25T09:35:39.925Z,6548
2017-09-25T09:36:09.924Z,7322
2017-09-25T09:36:40.805Z,8308
2017-09-25T09:37:10.819Z,9062
2017-09-25T09:37:41.741Z,9645
2017-09-25T09:38:11.776Z,10115
2017-09-25T09:38:42.648Z,10485
2017-09-25T09:39:12.696Z,10817
2017-09-25T09:39:43.531Z,11077
2017-09-25T09:40:13.622Z,11312
2017-09-25T09:40:44.463Z,11415
2017-09-25T09:41:14.501Z,11353
2017-09-25T09:41:45.364Z,11243
2017-09-25T09:42:15.420Z,11147
2017-09-25T09:42:46.295Z,11032
2017-09-25T09:43:16.329Z,10852
2017-09-25T09:43:47.248Z,10070
2017-09-25T09:44:17.254Z,9397
2017-09-25T09:44:48.179Z,9060
2017-09-25T09:45:18.334Z,8642
2017-09-25T09:45:49.093Z,8342
2017-09-25T09:46:19.120Z,7982
2017-09-25T09:46:49.948Z,7650
2017-09-25T09:47:19.987Z,7180
2017-09-25T09:47:50.857Z,6682
2017-09-25T09:48:20.943Z,6458
2017-09-25T09:48:51.806Z,6055
2017-09-25T09:49:21.865Z,5437
2017-09-25T09:49:52.691Z,5150
2017-09-25T09:50:22.790Z,5155
2017-09-25T09:50:53.609Z,5115
2017-09-25T09:51:23.708Z,5120
2017-09-25T09:51:54.592Z,5285
2017-09-25T09:52:24.561Z,5380
2017-09-25T09:52:55.486Z,5280
2017-09-25T09:53:25.529Z,5085
2017-09-25T09:53:56.362Z,4913
2017-09-25T09:54:26.435Z,5023
2017-09-25T09:54:57.312Z,5410
2017-09-25T09:55:27.368Z,5863
2017-09-25T09:55:58.259Z,6257
2017-09-25T09:56:28.270Z,6553
2017-09-25T09:56:59.110Z,6910
2017-09-25T09:57:29.161Z,7350
2017-09-25T09:58:00.020Z,7770
2017-09-25T09:58:30.072Z,8025
2017-09-25T09:59:01.430Z,8042
2017-09-25T09:59:30.985Z,7910
2017-09-25T10:00:01.923Z,7780
2017-09-25T10:00:31.952Z,7720
2017-09-25T10:01:02.802Z,7732
2017-09-25T10:01:32.867Z,7762
2017-09-25T10:02:03.733Z,7787
2017-09-25T10:02:33.759Z,7667
2017-09-25T10:03:04.626Z,7335
2017-09-25T10:03:34.629Z,6928
2017-09-25T10:04:05.526Z,6535
2017-09-25T10:04:35.802Z,6193
2017-09-25T10:05:06.514Z,5998
2017-09-25T10:05:36.581Z,6010
2017-09-25T10:06:07.418Z,6235
2017-09-25T10:06:37.413Z,6660
2017-09-25T10:07:08.324Z,7402
2017-09-25T10:07:38.344Z,8385
2017-09-25T10:08:09.267Z,9715
2017-09-25T10:08:39.270Z,11083
2017-09-25T10:09:10.148Z,12255
2017-09-25T10:09:40.177Z,13327
2017-09-25T10:10:11.012Z,16235
2017-09-25T10:10:42.577Z,17333
2017-09-25T10:11:11.939Z,23040
2017-09-25T10:11:42.019Z,22147
2017-09-25T10:12:12.856Z,19772
2017-09-25T10:12:42.909Z,18525
2017-09-25T10:13:13.735Z,18445
2017-09-25T10:13:43.767Z,18525
2017-09-25T10:14:14.692Z,18553
2017-09-25T10:14:44.745Z,18413
2017-09-25T10:15:15.559Z,18268
2017-09-25T10:15:45.715Z,18092
2017-09-25T10:16:16.507Z,17957
2017-09-25T10:16:46.566Z,18047
2017-09-25T10:17:17.454Z,18570
2017-09-25T10:17:47.486Z,21697
2017-09-25T10:18:18.382Z,25030
2017-09-25T10:18:48.421Z,20933
2017-09-25T10:19:19.293Z,21482
2017-09-25T10:19:49.392Z,21550
2017-09-25T10:20:20.158Z,22262
2017-09-25T10:20:50.231Z,21812
2017-09-25T10:21:21.109Z,19725
2017-09-25T10:21:51.146Z,17765
2017-09-25T10:22:21.995Z,16657
2017-09-25T10:22:52.035Z,15487
2017-09-25T10:23:22.880Z,14972
2017-09-25T10:23:52.929Z,14340
2017-09-25T10:24:23.860Z,13607
2017-09-25T10:24:53.868Z,13090
2017-09-25T10:25:24.794Z,12685
2017-09-25T10:25:54.905Z,12275
2017-09-25T10:26:25.790Z,11717
2017-09-25T10:26:58.703Z,10935
2017-09-25T10:27:27.749Z,10140
2017-09-25T10:27:59.704Z,9557
2017-09-25T10:28:28.687Z,9255
2017-09-25T10:29:00.663Z,8940
2017-09-25T10:29:29.600Z,8285
2017-09-25T10:30:01.436Z,7208
2017-09-25T10:30:30.536Z,5983
2017-09-25T10:31:02.394Z,4785
2017-09-25T10:31:31.486Z,3898
2017-09-25T10:34:05.227Z,3430
2017-09-25T10:34:34.336Z,3523
2017-09-25T10:35:06.151Z,3553
2017-09-25T10:35:35.219Z,3568
2017-09-25T10:38:08.926Z,3940
2017-09-25T10:38:37.934Z,3938
2017-09-25T10:40:43.271Z,3958
2017-09-25T10:41:11.687Z,3920
2017-09-25T10:41:40.711Z,3827
2017-09-25T10:42:12.607Z,3915
2017-09-25T10:44:43.512Z,7750
2017-09-25T10:45:15.380Z,8338
2017-09-25T10:45:44.431Z,8380
2017-09-25T10:46:16.304Z,7793
2017-09-25T10:46:45.376Z,7060
2017-09-25T10:47:17.208Z,6268
2017-09-25T10:47:46.292Z,5522
2017-09-25T10:48:18.189Z,5040
2017-09-25T10:48:47.211Z,4780
2017-09-25T10:49:19.071Z,4708
2017-09-25T10:49:48.050Z,4712
2017-09-25T10:50:19.935Z,4762
2017-09-25T10:50:49.016Z,4832
2017-09-25T10:51:20.910Z,4855
2017-09-25T10:51:49.911Z,4845
2017-09-25T10:52:21.800Z,4840
2017-09-25T10:52:50.869Z,4815
2017-09-25T10:53:22.719Z,4635
2017-09-25T10:53:51.792Z,4367
2017-09-25T10:54:23.744Z,4127
2017-09-25T10:54:52.713Z,3970
2017-09-25T10:55:24.594Z,3883
2017-09-25T10:55:53.646Z,3917
2017-09-25T10:56:25.516Z,4082
2017-09-25T10:56:54.543Z,4315
2017-09-25T10:57:26.443Z,4605
2017-09-25T10:57:55.492Z,4888
2017-09-25T10:58:27.362Z,5113
2017-09-25T10:58:56.423Z,5272
2017-09-25T10:59:28.258Z,5447
2017-09-25T10:59:57.370Z,5593
2017-09-25T11:00:29.172Z,5692
2017-09-25T11:00:58.275Z,5755
2017-09-25T11:01:30.068Z,5975
2017-09-25T11:01:59.148Z,6422
2017-09-25T11:02:31.031Z,6955
2017-09-25T11:03:00.046Z,7540
2017-09-25T11:03:31.946Z,8230
2017-09-25T11:04:00.959Z,8960
2017-09-25T11:04:32.843Z,9793
2017-09-25T11:05:01.891Z,10780
2017-09-25T11:05:33.767Z,11717
2017-09-25T11:06:02.852Z,12448
2017-09-25T11:06:34.786Z,12928
2017-09-25T11:07:03.744Z,13030
2017-09-25T11:07:35.645Z,12505
2017-09-25T11:08:04.661Z,11722
2017-09-25T11:08:36.577Z,10823
2017-09-25T11:09:05.622Z,10060
2017-09-25T11:09:37.492Z,9315
2017-09-25T11:10:06.510Z,8870
2017-09-25T11:10:38.427Z,8400
2017-09-25T11:11:07.433Z,7988
2017-09-25T11:11:39.273Z,7535
2017-09-25T11:12:08.388Z,7010
2017-09-25T11:12:40.256Z,6415
2017-09-25T11:13:09.325Z,5765
2017-09-25T11:13:41.217Z,5250
2017-09-25T11:14:10.259Z,5128
2017-09-25T11:14:42.111Z,5342
2017-09-25T11:15:11.143Z,5795
2017-09-25T11:15:43.021Z,6480
2017-09-25T11:16:12.042Z,7535
2017-09-25T11:21:16.752Z,17467
2017-09-25T11:21:48.627Z,16265
2017-09-25T11:26:26.320Z,18967
2017-09-25T11:26:53.193Z,20920
2017-09-25T11:27:22.248Z,32090
2017-09-25T11:27:54.118Z,34562
2017-09-25T11:28:23.179Z,35992
2017-09-25T11:28:55.050Z,34163
2017-09-25T11:29:24.048Z,32885
2017-09-25T11:29:55.936Z,22693
2017-09-25T11:30:24.969Z,26195
2017-09-25T11:30:56.896Z,18905
2017-09-25T11:31:25.948Z,16760
2017-09-25T11:31:57.798Z,15540
2017-09-25T11:32:26.828Z,14095
2017-09-25T11:32:58.731Z,12400
2017-09-25T11:33:27.766Z,10840
2017-09-25T11:33:59.645Z,9460
2017-09-25T11:34:28.685Z,8570
2017-09-25T11:35:00.827Z,7760
2017-09-25T11:35:29.627Z,6945
2017-09-25T11:36:01.498Z,6035
2017-09-25T11:36:30.547Z,5100
2017-09-25T11:37:02.431Z,4265
2017-09-25T11:37:31.480Z,3697
2017-09-25T11:38:03.357Z,3403
2017-09-25T11:38:32.397Z,3223
2017-09-25T11:39:04.384Z,3235
2017-09-25T11:39:33.421Z,3365
2017-09-25T11:40:04.304Z,3630
2017-09-25T11:40:33.491Z,3862
2017-09-25T11:41:04.404Z,3992
2017-09-25T11:41:33.550Z,3960
2017-09-25T11:42:04.458Z,3990
2017-09-25T11:42:33.615Z,4322
2017-09-25T11:43:04.504Z,4875
2017-09-25T11:43:33.689Z,5563
2017-09-25T11:44:04.592Z,6280
2017-09-25T11:44:33.744Z,7057
2017-09-25T11:45:04.654Z,7793
2017-09-25T11:45:33.821Z,8303
2017-09-25T11:46:04.736Z,8510
2017-09-25T11:46:33.899Z,8580
2017-09-25T11:47:04.817Z,8590
2017-09-25T11:47:33.972Z,8743
2017-09-25T11:48:04.847Z,8953
2017-09-25T11:48:34.054Z,9170
2017-09-25T11:49:04.894Z,9310
2017-09-25T11:49:34.087Z,9643
2017-09-25T11:50:05.015Z,10153
2017-09-25T11:50:34.163Z,10705
2017-09-25T11:51:05.083Z,11290
2017-09-25T11:51:34.218Z,11857
2017-09-25T11:52:05.140Z,12315
2017-09-25T11:52:34.344Z,12675
2017-09-25T11:53:05.183Z,12763
2017-09-25T11:53:34.404Z,12635
2017-09-25T11:54:05.354Z,12340
2017-09-25T11:54:34.481Z,11890
2017-09-25T11:55:05.387Z,11272
2017-09-25T11:55:34.562Z,10695
2017-09-25T11:56:05.396Z,10438
2017-09-25T11:56:34.565Z,10555
2017-09-25T11:57:05.458Z,10705
2017-09-25T11:57:34.748Z,10567
2017-09-25T11:58:05.519Z,10438
2017-09-25T11:58:34.811Z,10618
2017-09-25T11:59:05.611Z,11132
2017-09-25T11:59:34.750Z,11890
2017-09-25T12:00:05.684Z,12568
2017-09-25T12:00:34.806Z,12887
2017-09-25T12:01:05.765Z,12890
2017-09-25T12:01:34.877Z,12565
2017-09-25T12:02:05.827Z,12125
2017-09-25T12:02:34.984Z,11680
2017-09-25T12:03:05.874Z,11195
2017-09-25T12:03:35.043Z,10577
2017-09-25T12:04:05.932Z,9730
2017-09-25T12:04:35.098Z,8745
2017-09-25T12:05:05.999Z,7990
2017-09-25T12:05:35.194Z,7742
2017-09-25T12:06:06.154Z,7652
2017-09-25T12:06:35.224Z,7658
2017-09-25T12:07:06.150Z,7493